sensor_id;sensor_type;location;lat;lon;timestamp;P1;durP1;ratioP1;P2;durP2;ratioP2
52180;SDS011;38158;53.338;6.514;2024-02-21T00:01:42;17.20;;;3.70;;
52180;SDS011;38158;53.338;6.514;2024-02-21T00:04:07;11.20;;;3.10;;
52180;SDS011;38158;53.338;6.514;2024-02-21T00:06:33;14.82;;;3.47;;
52180;SDS011;38158;53.338;6.514;2024-02-21T00:08:58;15.30;;;3.13;;
52180;SDS011;38158;53.338;6.514;2024-02-21T00:11:24;16.95;;;4.32;;
52180;SDS011;38158;53.338;6.514;2024-02-21T00:13:50;16.50;;;3.35;;
52180;SDS011;38158;53.338;6.514;2024-02-21T00:16:16;11.77;;;2.78;;
52180;SDS011;38158;53.338;6.514;2024-02-21T00:18:42;12.53;;;3.10;;
52180;SDS011;38158;53.338;6.514;2024-02-21T00:21:08;11.60;;;3.20;;
52180;SDS011;38158;53.338;6.514;2024-02-21T00:23:34;17.58;;;3.42;;
52180;SDS011;38158;53.338;6.514;2024-02-21T00:25:59;12.27;;;3.20;;
52180;SDS011;38158;53.338;6.514;2024-02-21T00:28:25;12.73;;;3.05;;
52180;SDS011;38158;53.338;6.514;2024-02-21T00:30:51;15.23;;;3.38;;
52180;SDS011;38158;53.338;6.514;2024-02-21T00:33:18;12.73;;;3.38;;
52180;SDS011;38158;53.338;6.514;2024-02-21T00:35:44;14.70;;;3.35;;
52180;SDS011;38158;53.338;6.514;2024-02-21T00:38:10;16.70;;;3.67;;
52180;SDS011;38158;53.338;6.514;2024-02-21T00:40:35;16.73;;;3.70;;
52180;SDS011;38158;53.338;6.514;2024-02-21T00:43:01;14.00;;;3.42;;
52180;SDS011;38158;53.338;6.514;2024-02-21T00:45:27;14.55;;;3.83;;
52180;SDS011;38158;53.338;6.514;2024-02-21T00:47:53;12.27;;;3.38;;
52180;SDS011;38158;53.338;6.514;2024-02-21T00:50:19;20.52;;;3.72;;
52180;SDS011;38158;53.338;6.514;2024-02-21T00:52:44;16.63;;;3.88;;
52180;SDS011;38158;53.338;6.514;2024-02-21T00:55:10;18.85;;;4.45;;
52180;SDS011;38158;53.338;6.514;2024-02-21T00:57:36;21.83;;;4.07;;
52180;SDS011;38158;53.338;6.514;2024-02-21T01:00:02;15.20;;;4.10;;
52180;SDS011;38158;53.338;6.514;2024-02-21T01:02:29;17.95;;;3.95;;
52180;SDS011;38158;53.338;6.514;2024-02-21T01:04:56;20.50;;;4.85;;
52180;SDS011;38158;53.338;6.514;2024-02-21T01:07:23;16.65;;;3.83;;
52180;SDS011;38158;53.338;6.514;2024-02-21T01:09:49;16.48;;;4.82;;
52180;SDS011;38158;53.338;6.514;2024-02-21T01:12:16;18.85;;;4.45;;
52180;SDS011;38158;53.338;6.514;2024-02-21T01:14:42;17.23;;;3.88;;
52180;SDS011;38158;53.338;6.514;2024-02-21T01:17:08;17.02;;;4.10;;
52180;SDS011;38158;53.338;6.514;2024-02-21T01:19:33;20.50;;;4.85;;
52180;SDS011;38158;53.338;6.514;2024-02-21T01:21:59;22.55;;;3.95;;
52180;SDS011;38158;53.338;6.514;2024-02-21T01:24:25;18.88;;;4.88;;
52180;SDS011;38158;53.338;6.514;2024-02-21T01:26:50;17.35;;;4.80;;
52180;SDS011;38158;53.338;6.514;2024-02-21T01:29:19;20.33;;;4.30;;
52180;SDS011;38158;53.338;6.514;2024-02-21T01:31:45;14.20;;;4.28;;
52180;SDS011;38158;53.338;6.514;2024-02-21T01:34:10;18.45;;;5.18;;
52180;SDS011;38158;53.338;6.514;2024-02-21T01:36:37;16.17;;;4.43;;
52180;SDS011;38158;53.338;6.514;2024-02-21T01:39:04;19.42;;;4.65;;
52180;SDS011;38158;53.338;6.514;2024-02-21T01:41:30;15.63;;;4.53;;
52180;SDS011;38158;53.338;6.514;2024-02-21T01:43:56;13.82;;;4.43;;
52180;SDS011;38158;53.338;6.514;2024-02-21T01:46:23;18.05;;;5.00;;
52180;SDS011;38158;53.338;6.514;2024-02-21T01:48:53;15.43;;;4.05;;
52180;SDS011;38158;53.338;6.514;2024-02-21T01:51:21;13.70;;;4.03;;
52180;SDS011;38158;53.338;6.514;2024-02-21T01:53:47;10.15;;;3.80;;
52180;SDS011;38158;53.338;6.514;2024-02-21T01:56:12;11.95;;;3.55;;
52180;SDS011;38158;53.338;6.514;2024-02-21T01:58:39;15.10;;;3.80;;
52180;SDS011;38158;53.338;6.514;2024-02-21T02:01:07;11.05;;;3.28;;
52180;SDS011;38158;53.338;6.514;2024-02-21T02:03:32;13.10;;;3.70;;
52180;SDS011;38158;53.338;6.514;2024-02-21T02:08:25;15.13;;;4.47;;
52180;SDS011;38158;53.338;6.514;2024-02-21T02:10:51;12.40;;;4.32;;
52180;SDS011;38158;53.338;6.514;2024-02-21T02:13:17;10.38;;;4.13;;
52180;SDS011;38158;53.338;6.514;2024-02-21T02:15:43;12.60;;;4.20;;
52180;SDS011;38158;53.338;6.514;2024-02-21T02:18:13;9.48;;;4.20;;
52180;SDS011;38158;53.338;6.514;2024-02-21T02:20:40;12.75;;;4.47;;
52180;SDS011;38158;53.338;6.514;2024-02-21T02:25:46;16.77;;;4.97;;
52180;SDS011;38158;53.338;6.514;2024-02-21T02:28:14;16.45;;;5.78;;
52180;SDS011;38158;53.338;6.514;2024-02-21T02:30:40;14.30;;;5.40;;
52180;SDS011;38158;53.338;6.514;2024-02-21T02:33:06;16.23;;;5.82;;
52180;SDS011;38158;53.338;6.514;2024-02-21T02:35:32;15.15;;;5.95;;
52180;SDS011;38158;53.338;6.514;2024-02-21T02:38:00;18.85;;;5.38;;
52180;SDS011;38158;53.338;6.514;2024-02-21T02:40:26;18.75;;;5.60;;
52180;SDS011;38158;53.338;6.514;2024-02-21T02:42:51;17.13;;;5.47;;
52180;SDS011;38158;53.338;6.514;2024-02-21T02:45:20;18.08;;;5.80;;
52180;SDS011;38158;53.338;6.514;2024-02-21T02:47:46;19.30;;;6.10;;
52180;SDS011;38158;53.338;6.514;2024-02-21T02:50:12;17.10;;;5.78;;
52180;SDS011;38158;53.338;6.514;2024-02-21T02:52:38;25.23;;;7.10;;
52180;SDS011;38158;53.338;6.514;2024-02-21T02:55:04;20.30;;;6.25;;
52180;SDS011;38158;53.338;6.514;2024-02-21T02:57:31;23.17;;;6.82;;
52180;SDS011;38158;53.338;6.514;2024-02-21T02:59:57;19.50;;;5.95;;
52180;SDS011;38158;53.338;6.514;2024-02-21T03:02:23;17.75;;;6.20;;
52180;SDS011;38158;53.338;6.514;2024-02-21T03:04:49;19.10;;;7.40;;
52180;SDS011;38158;53.338;6.514;2024-02-21T03:07:15;19.35;;;6.05;;
52180;SDS011;38158;53.338;6.514;2024-02-21T03:09:41;23.40;;;6.32;;
52180;SDS011;38158;53.338;6.514;2024-02-21T03:12:10;19.48;;;6.28;;
52180;SDS011;38158;53.338;6.514;2024-02-21T03:14:36;23.48;;;6.20;;
52180;SDS011;38158;53.338;6.514;2024-02-21T03:17:02;19.63;;;5.47;;
52180;SDS011;38158;53.338;6.514;2024-02-21T03:19:28;27.45;;;7.30;;
52180;SDS011;38158;53.338;6.514;2024-02-21T03:21:54;18.23;;;5.75;;
52180;SDS011;38158;53.338;6.514;2024-02-21T03:24:20;16.13;;;5.63;;
52180;SDS011;38158;53.338;6.514;2024-02-21T03:26:46;22.30;;;6.53;;
52180;SDS011;38158;53.338;6.514;2024-02-21T03:29:14;17.92;;;5.75;;
52180;SDS011;38158;53.338;6.514;2024-02-21T03:31:40;19.40;;;5.28;;
52180;SDS011;38158;53.338;6.514;2024-02-21T03:34:06;21.50;;;5.68;;
52180;SDS011;38158;53.338;6.514;2024-02-21T03:36:32;17.27;;;5.25;;
52180;SDS011;38158;53.338;6.514;2024-02-21T03:38:58;27.65;;;6.70;;
52180;SDS011;38158;53.338;6.514;2024-02-21T03:41:24;18.23;;;5.13;;
52180;SDS011;38158;53.338;6.514;2024-02-21T03:43:49;22.73;;;6.28;;
52180;SDS011;38158;53.338;6.514;2024-02-21T03:46:15;22.02;;;6.20;;
52180;SDS011;38158;53.338;6.514;2024-02-21T03:48:41;27.50;;;5.95;;
52180;SDS011;38158;53.338;6.514;2024-02-21T03:51:06;21.38;;;6.07;;
52180;SDS011;38158;53.338;6.514;2024-02-21T03:53:33;23.20;;;5.60;;
52180;SDS011;38158;53.338;6.514;2024-02-21T03:56:02;29.50;;;6.32;;
52180;SDS011;38158;53.338;6.514;2024-02-21T03:58:29;28.65;;;7.50;;
52180;SDS011;38158;53.338;6.514;2024-02-21T04:00:55;26.33;;;7.65;;
52180;SDS011;38158;53.338;6.514;2024-02-21T04:03:21;23.95;;;6.90;;
52180;SDS011;38158;53.338;6.514;2024-02-21T04:05:47;31.80;;;7.55;;
52180;SDS011;38158;53.338;6.514;2024-02-21T04:08:13;26.73;;;6.88;;
52180;SDS011;38158;53.338;6.514;2024-02-21T04:10:39;23.88;;;7.25;;
52180;SDS011;38158;53.338;6.514;2024-02-21T04:13:05;30.88;;;7.15;;
52180;SDS011;38158;53.338;6.514;2024-02-21T04:15:32;29.55;;;5.88;;
52180;SDS011;38158;53.338;6.514;2024-02-21T04:17:57;25.45;;;6.40;;
52180;SDS011;38158;53.338;6.514;2024-02-21T04:20:23;23.83;;;6.57;;
52180;SDS011;38158;53.338;6.514;2024-02-21T04:22:49;19.02;;;5.88;;
52180;SDS011;38158;53.338;6.514;2024-02-21T04:25:14;21.35;;;5.35;;
52180;SDS011;38158;53.338;6.514;2024-02-21T04:27:40;26.30;;;6.55;;
52180;SDS011;38158;53.338;6.514;2024-02-21T04:30:07;23.88;;;6.28;;
52180;SDS011;38158;53.338;6.514;2024-02-21T04:32:33;18.60;;;6.53;;
52180;SDS011;38158;53.338;6.514;2024-02-21T04:34:59;23.83;;;6.63;;
52180;SDS011;38158;53.338;6.514;2024-02-21T04:37:25;25.17;;;6.55;;
52180;SDS011;38158;53.338;6.514;2024-02-21T04:39:51;26.88;;;6.97;;
52180;SDS011;38158;53.338;6.514;2024-02-21T04:42:17;23.02;;;6.30;;
52180;SDS011;38158;53.338;6.514;2024-02-21T04:44:43;20.38;;;6.72;;
52180;SDS011;38158;53.338;6.514;2024-02-21T04:47:08;25.23;;;6.72;;
52180;SDS011;38158;53.338;6.514;2024-02-21T04:49:34;24.15;;;6.78;;
52180;SDS011;38158;53.338;6.514;2024-02-21T04:52:00;26.13;;;6.95;;
52180;SDS011;38158;53.338;6.514;2024-02-21T04:54:26;24.35;;;6.35;;
52180;SDS011;38158;53.338;6.514;2024-02-21T04:56:52;21.70;;;6.63;;
52180;SDS011;38158;53.338;6.514;2024-02-21T04:59:18;24.42;;;6.85;;
52180;SDS011;38158;53.338;6.514;2024-02-21T05:01:43;21.02;;;5.95;;
52180;SDS011;38158;53.338;6.514;2024-02-21T05:04:09;28.50;;;6.28;;
52180;SDS011;38158;53.338;6.514;2024-02-21T05:06:38;27.35;;;7.38;;
52180;SDS011;38158;53.338;6.514;2024-02-21T05:09:05;26.77;;;6.82;;
52180;SDS011;38158;53.338;6.514;2024-02-21T05:11:31;23.53;;;6.43;;
52180;SDS011;38158;53.338;6.514;2024-02-21T05:13:57;20.30;;;6.00;;
52180;SDS011;38158;53.338;6.514;2024-02-21T05:16:22;25.58;;;6.40;;
52180;SDS011;38158;53.338;6.514;2024-02-21T05:18:48;25.70;;;6.20;;
52180;SDS011;38158;53.338;6.514;2024-02-21T05:21:14;21.85;;;5.55;;
52180;SDS011;38158;53.338;6.514;2024-02-21T05:23:39;19.55;;;5.90;;
52180;SDS011;38158;53.338;6.514;2024-02-21T05:26:05;20.75;;;5.72;;
52180;SDS011;38158;53.338;6.514;2024-02-21T05:28:31;22.73;;;5.07;;
52180;SDS011;38158;53.338;6.514;2024-02-21T05:30:57;26.17;;;5.95;;
52180;SDS011;38158;53.338;6.514;2024-02-21T05:33:23;24.45;;;5.50;;
52180;SDS011;38158;53.338;6.514;2024-02-21T05:35:49;25.50;;;6.55;;
52180;SDS011;38158;53.338;6.514;2024-02-21T05:38:16;23.75;;;6.18;;
52180;SDS011;38158;53.338;6.514;2024-02-21T05:40:42;22.27;;;6.15;;
52180;SDS011;38158;53.338;6.514;2024-02-21T05:43:09;26.10;;;5.25;;
52180;SDS011;38158;53.338;6.514;2024-02-21T05:45:35;20.08;;;4.95;;
52180;SDS011;38158;53.338;6.514;2024-02-21T05:48:01;20.25;;;5.63;;
52180;SDS011;38158;53.338;6.514;2024-02-21T05:50:28;16.48;;;4.55;;
52180;SDS011;38158;53.338;6.514;2024-02-21T05:52:54;25.70;;;6.53;;
52180;SDS011;38158;53.338;6.514;2024-02-21T05:55:20;30.40;;;6.57;;
52180;SDS011;38158;53.338;6.514;2024-02-21T05:57:46;20.58;;;5.68;;
52180;SDS011;38158;53.338;6.514;2024-02-21T06:00:12;23.25;;;5.60;;
52180;SDS011;38158;53.338;6.514;2024-02-21T06:02:39;23.95;;;5.57;;
52180;SDS011;38158;53.338;6.514;2024-02-21T06:05:05;31.20;;;6.30;;
52180;SDS011;38158;53.338;6.514;2024-02-21T06:07:32;30.10;;;6.10;;
52180;SDS011;38158;53.338;6.514;2024-02-21T06:09:59;25.50;;;6.07;;
52180;SDS011;38158;53.338;6.514;2024-02-21T06:12:25;30.60;;;5.90;;
52180;SDS011;38158;53.338;6.514;2024-02-21T06:14:51;21.00;;;5.63;;
52180;SDS011;38158;53.338;6.514;2024-02-21T06:17:17;25.50;;;5.97;;
52180;SDS011;38158;53.338;6.514;2024-02-21T06:19:43;21.73;;;5.80;;
52180;SDS011;38158;53.338;6.514;2024-02-21T06:22:10;24.00;;;5.97;;
52180;SDS011;38158;53.338;6.514;2024-02-21T06:24:36;30.97;;;8.00;;
52180;SDS011;38158;53.338;6.514;2024-02-21T06:27:03;22.50;;;6.32;;
52180;SDS011;38158;53.338;6.514;2024-02-21T06:29:31;22.77;;;6.43;;
52180;SDS011;38158;53.338;6.514;2024-02-21T06:31:57;25.75;;;6.70;;
52180;SDS011;38158;53.338;6.514;2024-02-21T06:34:22;23.05;;;7.63;;
52180;SDS011;38158;53.338;6.514;2024-02-21T06:36:49;22.50;;;6.43;;
52180;SDS011;38158;53.338;6.514;2024-02-21T06:39:16;19.63;;;6.65;;
52180;SDS011;38158;53.338;6.514;2024-02-21T06:41:41;21.17;;;6.20;;
52180;SDS011;38158;53.338;6.514;2024-02-21T06:44:07;29.85;;;7.13;;
52180;SDS011;38158;53.338;6.514;2024-02-21T06:46:33;27.85;;;7.75;;
52180;SDS011;38158;53.338;6.514;2024-02-21T06:48:59;25.17;;;6.90;;
52180;SDS011;38158;53.338;6.514;2024-02-21T06:51:25;24.48;;;6.88;;
52180;SDS011;38158;53.338;6.514;2024-02-21T06:53:51;29.23;;;7.85;;
52180;SDS011;38158;53.338;6.514;2024-02-21T06:56:17;19.10;;;6.95;;
52180;SDS011;38158;53.338;6.514;2024-02-21T06:58:43;23.42;;;6.70;;
52180;SDS011;38158;53.338;6.514;2024-02-21T07:01:09;27.15;;;7.28;;
52180;SDS011;38158;53.338;6.514;2024-02-21T07:03:35;27.00;;;7.35;;
52180;SDS011;38158;53.338;6.514;2024-02-21T07:06:01;27.92;;;7.53;;
52180;SDS011;38158;53.338;6.514;2024-02-21T07:08:27;22.63;;;6.13;;
52180;SDS011;38158;53.338;6.514;2024-02-21T07:10:53;21.95;;;7.78;;
52180;SDS011;38158;53.338;6.514;2024-02-21T07:13:18;27.52;;;7.70;;
52180;SDS011;38158;53.338;6.514;2024-02-21T07:15:45;26.40;;;7.78;;
52180;SDS011;38158;53.338;6.514;2024-02-21T07:18:11;29.45;;;7.70;;
52180;SDS011;38158;53.338;6.514;2024-02-21T07:20:36;24.70;;;6.95;;
52180;SDS011;38158;53.338;6.514;2024-02-21T07:23:03;27.63;;;7.10;;
52180;SDS011;38158;53.338;6.514;2024-02-21T07:25:29;22.37;;;7.40;;
52180;SDS011;38158;53.338;6.514;2024-02-21T07:27:54;20.55;;;7.03;;
52180;SDS011;38158;53.338;6.514;2024-02-21T07:30:21;24.77;;;8.00;;
52180;SDS011;38158;53.338;6.514;2024-02-21T07:32:49;30.50;;;8.10;;
52180;SDS011;38158;53.338;6.514;2024-02-21T07:35:15;23.15;;;8.45;;
52180;SDS011;38158;53.338;6.514;2024-02-21T07:37:42;29.02;;;8.90;;
52180;SDS011;38158;53.338;6.514;2024-02-21T07:40:15;30.17;;;8.38;;
52180;SDS011;38158;53.338;6.514;2024-02-21T07:42:42;29.60;;;9.23;;
52180;SDS011;38158;53.338;6.514;2024-02-21T07:45:09;31.30;;;9.90;;
52180;SDS011;38158;53.338;6.514;2024-02-21T07:47:35;26.15;;;10.65;;
52180;SDS011;38158;53.338;6.514;2024-02-21T07:50:02;29.35;;;12.52;;
52180;SDS011;38158;53.338;6.514;2024-02-21T07:52:28;44.35;;;13.98;;
52180;SDS011;38158;53.338;6.514;2024-02-21T07:54:54;28.00;;;12.60;;
52180;SDS011;38158;53.338;6.514;2024-02-21T07:57:20;35.90;;;13.68;;
52180;SDS011;38158;53.338;6.514;2024-02-21T07:59:46;35.72;;;13.85;;
52180;SDS011;38158;53.338;6.514;2024-02-21T08:02:15;33.85;;;14.82;;
52180;SDS011;38158;53.338;6.514;2024-02-21T08:04:42;30.58;;;13.85;;
52180;SDS011;38158;53.338;6.514;2024-02-21T08:07:08;38.85;;;16.63;;
52180;SDS011;38158;53.338;6.514;2024-02-21T08:09:34;43.30;;;15.90;;
52180;SDS011;38158;53.338;6.514;2024-02-21T08:14:27;44.08;;;15.30;;
52180;SDS011;38158;53.338;6.514;2024-02-21T08:16:52;46.00;;;16.95;;
52180;SDS011;38158;53.338;6.514;2024-02-21T08:19:19;36.63;;;14.85;;
52180;SDS011;38158;53.338;6.514;2024-02-21T08:21:45;38.08;;;15.50;;
52180;SDS011;38158;53.338;6.514;2024-02-21T08:24:12;35.90;;;14.27;;
52180;SDS011;38158;53.338;6.514;2024-02-21T08:26:43;38.83;;;13.60;;
52180;SDS011;38158;53.338;6.514;2024-02-21T08:29:10;34.85;;;13.80;;
52180;SDS011;38158;53.338;6.514;2024-02-21T08:31:36;31.40;;;13.15;;
52180;SDS011;38158;53.338;6.514;2024-02-21T08:34:02;39.35;;;12.10;;
52180;SDS011;38158;53.338;6.514;2024-02-21T08:36:33;28.40;;;11.52;;
52180;SDS011;38158;53.338;6.514;2024-02-21T08:39:00;26.60;;;10.10;;
52180;SDS011;38158;53.338;6.514;2024-02-21T08:41:26;25.13;;;8.68;;
52180;SDS011;38158;53.338;6.514;2024-02-21T08:43:52;24.00;;;8.77;;
52180;SDS011;38158;53.338;6.514;2024-02-21T08:46:22;24.75;;;7.93;;
52180;SDS011;38158;53.338;6.514;2024-02-21T08:48:49;21.00;;;7.07;;
52180;SDS011;38158;53.338;6.514;2024-02-21T08:51:19;17.05;;;7.30;;
52180;SDS011;38158;53.338;6.514;2024-02-21T08:53:45;20.80;;;7.20;;
52180;SDS011;38158;53.338;6.514;2024-02-21T08:56:12;19.03;;;6.27;;
52180;SDS011;38158;53.338;6.514;2024-02-21T08:58:39;14.65;;;5.80;;
52180;SDS011;38158;53.338;6.514;2024-02-21T09:01:05;22.08;;;7.25;;
52180;SDS011;38158;53.338;6.514;2024-02-21T09:03:34;17.77;;;6.28;;
52180;SDS011;38158;53.338;6.514;2024-02-21T09:06:06;20.95;;;7.15;;
52180;SDS011;38158;53.338;6.514;2024-02-21T09:08:33;18.48;;;6.40;;
52180;SDS011;38158;53.338;6.514;2024-02-21T09:11:02;14.82;;;7.07;;
52180;SDS011;38158;53.338;6.514;2024-02-21T09:13:28;18.42;;;7.85;;
52180;SDS011;38158;53.338;6.514;2024-02-21T09:15:54;20.77;;;8.27;;
52180;SDS011;38158;53.338;6.514;2024-02-21T09:18:19;15.38;;;6.95;;
52180;SDS011;38158;53.338;6.514;2024-02-21T09:20:45;18.23;;;7.18;;
52180;SDS011;38158;53.338;6.514;2024-02-21T09:23:11;15.75;;;7.55;;
52180;SDS011;38158;53.338;6.514;2024-02-21T09:25:38;18.95;;;7.80;;
52180;SDS011;38158;53.338;6.514;2024-02-21T09:28:05;20.63;;;9.18;;
52180;SDS011;38158;53.338;6.514;2024-02-21T09:30:31;20.55;;;10.15;;
52180;SDS011;38158;53.338;6.514;2024-02-21T09:32:57;21.63;;;9.98;;
52180;SDS011;38158;53.338;6.514;2024-02-21T09:35:24;21.27;;;10.98;;
52180;SDS011;38158;53.338;6.514;2024-02-21T09:37:52;21.10;;;12.13;;
52180;SDS011;38158;53.338;6.514;2024-02-21T09:40:18;27.05;;;14.07;;
52180;SDS011;38158;53.338;6.514;2024-02-21T09:42:44;23.75;;;14.95;;
52180;SDS011;38158;53.338;6.514;2024-02-21T09:45:19;28.23;;;14.93;;
52180;SDS011;38158;53.338;6.514;2024-02-21T09:50:17;31.58;;;16.95;;
52180;SDS011;38158;53.338;6.514;2024-02-21T09:52:46;28.58;;;17.38;;
52180;SDS011;38158;53.338;6.514;2024-02-21T09:55:14;28.63;;;17.60;;
52180;SDS011;38158;53.338;6.514;2024-02-21T09:57:41;25.50;;;17.92;;
52180;SDS011;38158;53.338;6.514;2024-02-21T10:00:09;28.63;;;17.00;;
52180;SDS011;38158;53.338;6.514;2024-02-21T10:02:35;27.55;;;17.67;;
52180;SDS011;38158;53.338;6.514;2024-02-21T10:05:01;28.35;;;18.38;;
52180;SDS011;38158;53.338;6.514;2024-02-21T10:07:32;27.40;;;18.20;;
52180;SDS011;38158;53.338;6.514;2024-02-21T10:10:01;25.67;;;16.70;;
52180;SDS011;38158;53.338;6.514;2024-02-21T10:12:27;29.45;;;17.35;;
52180;SDS011;38158;53.338;6.514;2024-02-21T10:15:00;28.33;;;17.15;;
52180;SDS011;38158;53.338;6.514;2024-02-21T10:17:29;30.45;;;17.42;;
52180;SDS011;38158;53.338;6.514;2024-02-21T10:19:54;31.90;;;18.02;;
52180;SDS011;38158;53.338;6.514;2024-02-21T10:22:20;30.55;;;17.85;;
52180;SDS011;38158;53.338;6.514;2024-02-21T10:24:46;25.75;;;17.83;;
52180;SDS011;38158;53.338;6.514;2024-02-21T10:27:12;25.20;;;17.08;;
52180;SDS011;38158;53.338;6.514;2024-02-21T10:29:39;27.95;;;17.98;;
52180;SDS011;38158;53.338;6.514;2024-02-21T10:32:05;27.40;;;17.10;;
52180;SDS011;38158;53.338;6.514;2024-02-21T10:34:32;28.25;;;16.33;;
52180;SDS011;38158;53.338;6.514;2024-02-21T10:37:08;24.00;;;17.07;;
52180;SDS011;38158;53.338;6.514;2024-02-21T10:39:37;32.55;;;17.15;;
52180;SDS011;38158;53.338;6.514;2024-02-21T10:42:04;24.58;;;16.23;;
52180;SDS011;38158;53.338;6.514;2024-02-21T10:44:32;21.50;;;15.65;;
52180;SDS011;38158;53.338;6.514;2024-02-21T10:47:08;25.92;;;16.33;;
52180;SDS011;38158;53.338;6.514;2024-02-21T10:49:38;21.42;;;14.93;;
52180;SDS011;38158;53.338;6.514;2024-02-21T10:54:38;26.58;;;16.25;;
52180;SDS011;38158;53.338;6.514;2024-02-21T10:57:15;23.67;;;16.30;;
52180;SDS011;38158;53.338;6.514;2024-02-21T10:59:44;21.75;;;16.55;;
52180;SDS011;38158;53.338;6.514;2024-02-21T11:02:10;25.60;;;16.45;;
52180;SDS011;38158;53.338;6.514;2024-02-21T11:04:36;26.90;;;16.90;;
52180;SDS011;38158;53.338;6.514;2024-02-21T11:07:03;28.53;;;17.70;;
52180;SDS011;38158;53.338;6.514;2024-02-21T11:09:32;25.73;;;16.63;;
52180;SDS011;38158;53.338;6.514;2024-02-21T11:11:58;22.00;;;16.25;;
52180;SDS011;38158;53.338;6.514;2024-02-21T11:14:27;22.23;;;15.77;;
52180;SDS011;38158;53.338;6.514;2024-02-21T11:16:53;26.63;;;17.33;;
52180;SDS011;38158;53.338;6.514;2024-02-21T11:19:27;24.63;;;17.33;;
52180;SDS011;38158;53.338;6.514;2024-02-21T11:21:55;26.70;;;18.00;;
52180;SDS011;38158;53.338;6.514;2024-02-21T11:24:27;26.33;;;18.30;;
52180;SDS011;38158;53.338;6.514;2024-02-21T11:27:42;28.90;;;18.70;;
52180;SDS011;38158;53.338;6.514;2024-02-21T11:29:47;26.70;;;17.85;;
52180;SDS011;38158;53.338;6.514;2024-02-21T11:32:17;26.02;;;18.15;;
52180;SDS011;38158;53.338;6.514;2024-02-21T11:35:00;27.73;;;17.00;;
52180;SDS011;38158;53.338;6.514;2024-02-21T11:37:28;28.60;;;17.55;;
52180;SDS011;38158;53.338;6.514;2024-02-21T11:39:55;39.78;;;18.30;;
52180;SDS011;38158;53.338;6.514;2024-02-21T11:42:21;25.38;;;16.80;;
52180;SDS011;38158;53.338;6.514;2024-02-21T11:44:47;23.75;;;15.38;;
52180;SDS011;38158;53.338;6.514;2024-02-21T11:47:14;28.55;;;16.60;;
52180;SDS011;38158;53.338;6.514;2024-02-21T11:49:46;22.88;;;16.40;;
52180;SDS011;38158;53.338;6.514;2024-02-21T11:52:14;22.35;;;15.98;;
52180;SDS011;38158;53.338;6.514;2024-02-21T11:54:40;26.02;;;16.98;;
52180;SDS011;38158;53.338;6.514;2024-02-21T11:57:06;24.27;;;17.00;;
52180;SDS011;38158;53.338;6.514;2024-02-21T11:59:33;21.73;;;16.05;;
52180;SDS011;38158;53.338;6.514;2024-02-21T12:02:02;28.85;;;17.27;;
52180;SDS011;38158;53.338;6.514;2024-02-21T12:04:28;21.63;;;15.43;;
52180;SDS011;38158;53.338;6.514;2024-02-21T12:06:56;20.35;;;15.15;;
52180;SDS011;38158;53.338;6.514;2024-02-21T12:09:23;26.13;;;16.33;;
52180;SDS011;38158;53.338;6.514;2024-02-21T12:12:03;29.98;;;16.20;;
52180;SDS011;38158;53.338;6.514;2024-02-21T12:14:30;23.92;;;15.52;;
52180;SDS011;38158;53.338;6.514;2024-02-21T12:17:00;22.33;;;13.73;;
52180;SDS011;38158;53.338;6.514;2024-02-21T12:19:29;25.63;;;14.70;;
52180;SDS011;38158;53.338;6.514;2024-02-21T12:21:56;21.88;;;14.43;;
52180;SDS011;38158;53.338;6.514;2024-02-21T12:26:50;18.77;;;12.98;;
52180;SDS011;38158;53.338;6.514;2024-02-21T12:29:17;19.33;;;12.50;;
52180;SDS011;38158;53.338;6.514;2024-02-21T12:31:43;18.20;;;11.77;;
52180;SDS011;38158;53.338;6.514;2024-02-21T12:34:10;16.70;;;11.53;;
52180;SDS011;38158;53.338;6.514;2024-02-21T12:36:36;15.75;;;11.43;;
52180;SDS011;38158;53.338;6.514;2024-02-21T12:39:09;16.85;;;10.63;;
52180;SDS011;38158;53.338;6.514;2024-02-21T12:41:38;16.38;;;10.75;;
52180;SDS011;38158;53.338;6.514;2024-02-21T12:44:05;14.38;;;9.93;;
52180;SDS011;38158;53.338;6.514;2024-02-21T12:46:35;15.07;;;10.48;;
52180;SDS011;38158;53.338;6.514;2024-02-21T12:49:01;15.52;;;10.48;;
52180;SDS011;38158;53.338;6.514;2024-02-21T12:51:28;15.18;;;9.50;;
52180;SDS011;38158;53.338;6.514;2024-02-21T12:53:54;15.35;;;9.65;;
52180;SDS011;38158;53.338;6.514;2024-02-21T12:56:20;18.67;;;10.68;;
52180;SDS011;38158;53.338;6.514;2024-02-21T12:58:46;15.52;;;10.43;;
52180;SDS011;38158;53.338;6.514;2024-02-21T13:01:12;17.65;;;10.40;;
52180;SDS011;38158;53.338;6.514;2024-02-21T13:03:38;16.13;;;10.18;;
52180;SDS011;38158;53.338;6.514;2024-02-21T13:06:04;16.80;;;10.05;;
52180;SDS011;38158;53.338;6.514;2024-02-21T13:08:30;15.10;;;9.60;;
52180;SDS011;38158;53.338;6.514;2024-02-21T13:10:56;15.30;;;9.70;;
52180;SDS011;38158;53.338;6.514;2024-02-21T13:13:22;14.55;;;9.23;;
52180;SDS011;38158;53.338;6.514;2024-02-21T13:15:47;15.77;;;9.73;;
52180;SDS011;38158;53.338;6.514;2024-02-21T13:18:13;17.35;;;9.23;;
52180;SDS011;38158;53.338;6.514;2024-02-21T13:20:39;14.63;;;9.10;;
52180;SDS011;38158;53.338;6.514;2024-02-21T13:23:05;13.82;;;9.00;;
52180;SDS011;38158;53.338;6.514;2024-02-21T13:25:30;16.65;;;9.88;;
52180;SDS011;38158;53.338;6.514;2024-02-21T13:27:56;13.20;;;8.23;;
52180;SDS011;38158;53.338;6.514;2024-02-21T13:30:22;15.35;;;8.68;;
52180;SDS011;38158;53.338;6.514;2024-02-21T13:32:48;14.05;;;8.73;;
52180;SDS011;38158;53.338;6.514;2024-02-21T13:35:16;14.95;;;8.20;;
52180;SDS011;38158;53.338;6.514;2024-02-21T13:37:43;12.18;;;7.32;;
52180;SDS011;38158;53.338;6.514;2024-02-21T13:40:08;13.00;;;7.10;;
52180;SDS011;38158;53.338;6.514;2024-02-21T13:42:35;13.13;;;7.80;;
52180;SDS011;38158;53.338;6.514;2024-02-21T13:45:02;12.98;;;7.10;;
52180;SDS011;38158;53.338;6.514;2024-02-21T13:47:34;14.43;;;7.95;;
52180;SDS011;38158;53.338;6.514;2024-02-21T13:50:06;14.50;;;7.50;;
52180;SDS011;38158;53.338;6.514;2024-02-21T13:52:36;14.20;;;7.40;;
52180;SDS011;38158;53.338;6.514;2024-02-21T13:55:06;10.82;;;6.47;;
52180;SDS011;38158;53.338;6.514;2024-02-21T13:57:35;12.20;;;6.60;;
52180;SDS011;38158;53.338;6.514;2024-02-21T14:00:01;11.63;;;6.43;;
52180;SDS011;38158;53.338;6.514;2024-02-21T14:02:28;10.85;;;6.53;;
52180;SDS011;38158;53.338;6.514;2024-02-21T14:04:54;12.65;;;7.30;;
52180;SDS011;38158;53.338;6.514;2024-02-21T14:07:20;9.60;;;6.15;;
52180;SDS011;38158;53.338;6.514;2024-02-21T14:09:45;9.75;;;6.35;;
52180;SDS011;38158;53.338;6.514;2024-02-21T14:12:11;11.07;;;6.65;;
52180;SDS011;38158;53.338;6.514;2024-02-21T14:14:37;10.77;;;6.25;;
52180;SDS011;38158;53.338;6.514;2024-02-21T14:17:03;12.98;;;6.80;;
52180;SDS011;38158;53.338;6.514;2024-02-21T14:19:30;12.00;;;7.32;;
52180;SDS011;38158;53.338;6.514;2024-02-21T14:21:56;14.27;;;8.00;;
52180;SDS011;38158;53.338;6.514;2024-02-21T14:24:22;9.30;;;6.32;;
52180;SDS011;38158;53.338;6.514;2024-02-21T14:26:48;9.27;;;6.47;;
52180;SDS011;38158;53.338;6.514;2024-02-21T14:29:14;14.25;;;6.20;;
52180;SDS011;38158;53.338;6.514;2024-02-21T14:31:39;9.07;;;6.05;;
52180;SDS011;38158;53.338;6.514;2024-02-21T14:34:05;9.40;;;6.25;;
52180;SDS011;38158;53.338;6.514;2024-02-21T14:36:32;9.45;;;6.13;;
52180;SDS011;38158;53.338;6.514;2024-02-21T14:38:58;9.32;;;6.05;;
52180;SDS011;38158;53.338;6.514;2024-02-21T14:41:24;9.85;;;6.70;;
52180;SDS011;38158;53.338;6.514;2024-02-21T14:43:50;11.05;;;6.13;;